• Join FlightAware (Why Join?)
  • Login
  • US Flag 
08:19PM EDT


 

Airport Tracker/Info


-or-


 

Live Flight TrackerFlight Track Log ✈ AAR8739 ✈ 10-Nov-2013 ✈ RKSS / GMP - RKJY / RSU

Flight Track Log - Related Links

Times and Time Zones

All times are in EST time to prevent confusion due to time zone crossing. See the AAR8739 flight status page for this flight to view local times or setup timezone preferences in your user account.

Time Position Orientation Groundspeed Altitude Reporting Facility
EST Latitude Longitude Course Direction KTS MPH feet Rate Location/Type
09:40PM 37.3250 126.8637 166° South  Level Estimated
09:41PM 37.2472 126.8880 166° South  Level Estimated
09:41PM 37.3820 126.6790 166° South 374 430 15,300  Level FlightAware
09:42PM 37.1695 126.9122 166° South  Level Estimated
09:42PM 37.3360 126.6890 170° South 396 456 16,300  Level FlightAware
09:43PM 37.2280 126.7130 170° South 407 468 18,700 2,280 Climbing FlightAware
09:43PM 37.1700 126.7260 170° South 428 493 19,800 2,700 Climbing FlightAware
09:44PM 37.0840 126.7450 170° South 426 490 22,100 2,760 Climbing FlightAware
09:45PM 37.0120 126.7610 170° South 426 490 23,500 1,080 Climbing FlightAware
09:45PM 36.9460 126.7770 169° South 426 490 23,500 360 Level FlightAware
09:46PM 36.8650 126.7930 171° South 422 486 24,000 240 Climbing FlightAware
09:47PM 36.7440 126.8200 170° South 422 486 24,000  Level FlightAware
09:48PM 36.6620 126.8380 170° South 422 486 24,000  Level FlightAware
09:49PM 36.5840 126.8550 170° South 422 486 24,000  Level FlightAware
09:49PM 36.5060 126.8720 170° South 422 486 24,000  Level FlightAware
09:50PM 36.4250 126.8900 170° South 422 486 24,000  Level FlightAware
09:53PM 36.2537 126.9699 159° South  Level Estimated
09:54PM 36.1787 127.0048 159° South  Level Estimated
09:55PM 36.1036 127.0396 159° South  Level Estimated
09:56PM 36.0286 127.0743 159° South  Level Estimated
09:57PM 35.9535 127.1090 159° South  Level Estimated
09:58PM 35.8784 127.1436 160° South  Level Estimated
09:59PM 35.8033 127.1781 160° South  Level Estimated
10:00PM 35.7282 127.2126 160° South  Level Estimated
10:01PM 35.6531 127.2470 160° South  Level Estimated
10:02PM 35.5780 127.2814 160° South  Level Estimated
10:03PM 35.5029 127.3156 160° South  Level Estimated
10:04PM 35.4278 127.3499 160° South  Level Estimated
10:05PM 35.3526 127.3840 160° South  Level Estimated
10:06PM 35.2775 127.4181 160° South  Level Estimated
10:07PM 35.2023 127.4521 160° South  Level Estimated
10:08PM 35.1272 127.4861 160° South  Level Estimated
10:09PM 35.0520 127.5200 160° South  Level Estimated
10:10PM 34.9768 127.5538 160° South  Level Estimated
10:11PM 34.9016 127.5876 160° South  Level Estimated
10:12PM 34.8398 127.6153 160° South  Level Estimated
10:13PM 34.8398 127.6153 180° South  Level Estimated
10:14PM 34.8398 127.6153 180° South  Level Estimated
10:15PM 34.8398 127.6153 180° South  Level Estimated
10:16PM 34.8398 127.6153 180° South  Level Estimated
10:17PM 34.8398 127.6153 180° South  Level Estimated
10:18PM 34.8398 127.6153 180° South  Level Estimated
10:19PM 34.8398 127.6153 180° South  Level Estimated
10:20PM 34.8398 127.6153 180° South  Level Estimated
10:21PM 34.8398 127.6153 180° South  Level Estimated
10:22PM 34.8398 127.6153 180° South  Level Estimated
10:23PM 34.8398 127.6153 180° South  Level Estimated
10:24PM 34.8398 127.6153 180° South  Level Estimated
10:25PM 34.8398 127.6153 180° South  Level Estimated
10:26PM 34.8398 127.6153 180° South  Level Estimated
10:27PM 34.8398 127.6153 180° South  Level Estimated
10:28PM 34.8398 127.6153 180° South  Level Estimated